AFL341 USSS-UUDD
Flight info
| Callsign | AFL341 |
|---|---|
| Flight time | N/A |
| Altitude | 38000 |
| Route | LUNAG6K LUNAG M864 AGNOK/K0811F280 M864 KERUN P164 IDMOR M864 EKSER/K0870F380 M864 IBROT T535 OKNAN T787 URAGO URAGO3M |
| Aircraft | B772/H-SDE2E3FGHIJ5LORVWXY/LB1D1 |
Departure
| Time | 2026-05-07 10:29 |
|---|---|
| Airport | Koltsovo Airport (USSS) |
Arrival
| Time | N/A |
|---|---|
| Airport | Domodedovo International Airport (UUDD) |
| Time | Latitude | Longitude | Altitude | Speed | Heading |
|---|---|---|---|---|---|
| 2026-05-07 09:38 | 56.74918 | 60.80495 | 783 ft | 0 kts | 0° |
| 2026-05-07 10:18 | 56.74901 | 60.80495 | 783 ft | 2 kts | 0° |
| 2026-05-07 10:18 | 56.74886 | 60.80493 | 783 ft | 2 kts | 16° |
| 2026-05-07 10:19 | 56.74872 | 60.80483 | 783 ft | 2 kts | 34° |
| 2026-05-07 10:19 | 56.74861 | 60.80465 | 783 ft | 2 kts | 52° |
| 2026-05-07 10:19 | 56.74853 | 60.80442 | 783 ft | 2 kts | 69° |
| 2026-05-07 10:19 | 56.74850 | 60.80416 | 783 ft | 2 kts | 86° |
| 2026-05-07 10:20 | 56.74850 | 60.80403 | 783 ft | 1 kts | 92° |
| 2026-05-07 10:20 | 56.74850 | 60.80402 | 783 ft | 0 kts | 92° |
| 2026-05-07 10:22 | 56.74850 | 60.80403 | 783 ft | 0 kts | 92° |
| 2026-05-07 10:23 | 56.74850 | 60.80428 | 782 ft | 3 kts | 89° |
| 2026-05-07 10:23 | 56.74850 | 60.80489 | 783 ft | 6 kts | 89° |
| 2026-05-07 10:23 | 56.74844 | 60.80580 | 783 ft | 8 kts | 112° |
| 2026-05-07 10:23 | 56.74791 | 60.80639 | 783 ft | 10 kts | 170° |
| 2026-05-07 10:24 | 56.74718 | 60.80647 | 783 ft | 8 kts | 174° |
| 2026-05-07 10:24 | 56.74669 | 60.80712 | 783 ft | 10 kts | 111° |
| 2026-05-07 10:24 | 56.74661 | 60.80853 | 783 ft | 12 kts | 91° |
| 2026-05-07 10:24 | 56.74660 | 60.81016 | 783 ft | 13 kts | 91° |
| 2026-05-07 10:25 | 56.74659 | 60.81204 | 783 ft | 15 kts | 90° |
| 2026-05-07 10:25 | 56.74659 | 60.81411 | 783 ft | 17 kts | 89° |
| 2026-05-07 10:25 | 56.74660 | 60.81636 | 783 ft | 18 kts | 90° |
| 2026-05-07 10:25 | 56.74660 | 60.81875 | 783 ft | 19 kts | 90° |
| 2026-05-07 10:26 | 56.74661 | 60.82038 | 783 ft | 11 kts | 90° |
| 2026-05-07 10:26 | 56.74632 | 60.82175 | 783 ft | 12 kts | 146° |
| 2026-05-07 10:26 | 56.74538 | 60.82206 | 783 ft | 14 kts | 181° |
| 2026-05-07 10:26 | 56.74429 | 60.82198 | 783 ft | 16 kts | 183° |
| 2026-05-07 10:27 | 56.74308 | 60.82184 | 783 ft | 18 kts | 185° |
| 2026-05-07 10:27 | 56.74186 | 60.82168 | 783 ft | 16 kts | 181° |
| 2026-05-07 10:27 | 56.74101 | 60.82153 | 783 ft | 11 kts | 211° |
| 2026-05-07 10:27 | 56.74070 | 60.82046 | 783 ft | 7 kts | 266° |
| 2026-05-07 10:28 | 56.74069 | 60.82026 | 783 ft | 2 kts | 268° |
| 2026-05-07 10:28 | 56.74077 | 60.81744 | 783 ft | 61 kts | 275° |
| 2026-05-07 10:28 | 56.74134 | 60.80368 | 783 ft | 151 kts | 274° |
| 2026-05-07 10:28 | 56.74220 | 60.78056 | 1017 ft | 201 kts | 277° |
| 2026-05-07 10:29 | 56.74295 | 60.75529 | 1893 ft | 210 kts | 274° |
| 2026-05-07 10:29 | 56.74307 | 60.72921 | 2388 ft | 213 kts | 274° |
| 2026-05-07 10:29 | 56.74324 | 60.69986 | 2628 ft | 245 kts | 274° |
| 2026-05-07 10:30 | 56.74403 | 60.63533 | 4202 ft | 261 kts | 274° |
| 2026-05-07 10:30 | 56.74433 | 60.60249 | 5138 ft | 263 kts | 272° |
| 2026-05-07 10:30 | 56.74485 | 60.56918 | 6051 ft | 264 kts | 273° |
| 2026-05-07 10:30 | 56.74569 | 60.53614 | 6953 ft | 265 kts | 279° |
| 2026-05-07 10:31 | 56.74892 | 60.50344 | 7793 ft | 267 kts | 282° |
| 2026-05-07 10:31 | 56.75242 | 60.47049 | 8686 ft | 268 kts | 282° |
| 2026-05-07 10:31 | 56.75598 | 60.43709 | 9463 ft | 272 kts | 281° |
| 2026-05-07 10:31 | 56.75951 | 60.40353 | 10284 ft | 276 kts | 282° |
| 2026-05-07 10:32 | 56.76346 | 60.36827 | 10711 ft | 293 kts | 282° |
| 2026-05-07 10:32 | 56.76748 | 60.33048 | 11103 ft | 312 kts | 281° |
| 2026-05-07 10:32 | 56.77213 | 60.29097 | 11481 ft | 330 kts | 282° |
| 2026-05-07 10:32 | 56.77713 | 60.24909 | 11914 ft | 346 kts | 282° |
| 2026-05-07 10:33 | 56.78170 | 60.20529 | 12373 ft | 360 kts | 281° |
| 2026-05-07 10:33 | 56.78642 | 60.15960 | 12856 ft | 369 kts | 281° |
| 2026-05-07 10:33 | 56.79185 | 60.11381 | 12924 ft | 369 kts | 281° |
| 2026-05-07 10:33 | 56.79487 | 60.06790 | 12935 ft | 370 kts | 276° |
| 2026-05-07 10:34 | 56.79728 | 60.02104 | 12951 ft | 370 kts | 276° |
| 2026-05-07 10:34 | 56.79972 | 59.97424 | 12952 ft | 370 kts | 276° |
| 2026-05-07 10:34 | 56.80212 | 59.92819 | 12948 ft | 370 kts | 276° |
| 2026-05-07 10:34 | 56.80466 | 59.88137 | 12952 ft | 370 kts | 276° |
| 2026-05-07 10:35 | 56.80729 | 59.83461 | 12960 ft | 370 kts | 276° |
| 2026-05-07 10:35 | 56.80992 | 59.78848 | 12957 ft | 370 kts | 276° |
| 2026-05-07 10:35 | 56.81260 | 59.74184 | 12955 ft | 370 kts | 277° |
| 2026-05-07 10:35 | 56.81528 | 59.69501 | 12940 ft | 370 kts | 277° |
| 2026-05-07 10:36 | 56.81800 | 59.64801 | 12950 ft | 370 kts | 277° |
| 2026-05-07 10:36 | 56.82066 | 59.60193 | 12947 ft | 370 kts | 277° |
| 2026-05-07 10:36 | 56.82335 | 59.55487 | 12949 ft | 370 kts | 277° |
| 2026-05-07 10:36 | 56.82597 | 59.50847 | 12951 ft | 369 kts | 276° |
| 2026-05-07 10:37 | 56.82860 | 59.46179 | 12961 ft | 375 kts | 277° |
| 2026-05-07 10:37 | 56.83127 | 59.41374 | 13608 ft | 383 kts | 277° |
| 2026-05-07 10:37 | 56.83388 | 59.36679 | 14689 ft | 378 kts | 277° |
| 2026-05-07 10:37 | 56.83651 | 59.31900 | 15588 ft | 379 kts | 276° |
| 2026-05-07 10:38 | 56.83917 | 59.27067 | 16300 ft | 385 kts | 276° |
| 2026-05-07 10:38 | 56.84185 | 59.22164 | 16942 ft | 391 kts | 276° |
| 2026-05-07 10:38 | 56.84452 | 59.17252 | 17645 ft | 396 kts | 276° |
| 2026-05-07 10:38 | 56.84723 | 59.12228 | 18355 ft | 400 kts | 276° |
| 2026-05-07 10:39 | 56.84993 | 59.07162 | 19082 ft | 403 kts | 276° |
| 2026-05-07 10:39 | 56.85189 | 59.02045 | 19746 ft | 408 kts | 273° |
| 2026-05-07 10:39 | 56.85270 | 58.96917 | 20402 ft | 412 kts | 272° |
| 2026-05-07 10:39 | 56.85349 | 58.91680 | 21066 ft | 416 kts | 273° |
| 2026-05-07 10:40 | 56.85432 | 58.86371 | 21738 ft | 420 kts | 273° |
| 2026-05-07 10:40 | 56.85517 | 58.81031 | 22369 ft | 424 kts | 273° |
| 2026-05-07 10:40 | 56.85602 | 58.75674 | 23007 ft | 427 kts | 273° |
| 2026-05-07 10:40 | 56.85688 | 58.70249 | 23638 ft | 431 kts | 273° |
| 2026-05-07 10:41 | 56.85775 | 58.64772 | 24233 ft | 435 kts | 273° |
| 2026-05-07 10:41 | 56.85860 | 58.59269 | 24803 ft | 440 kts | 273° |
| 2026-05-07 10:41 | 56.85944 | 58.53665 | 25380 ft | 444 kts | 273° |
| 2026-05-07 10:41 | 56.86028 | 58.47987 | 25963 ft | 447 kts | 273° |
| 2026-05-07 10:42 | 56.86109 | 58.42285 | 26532 ft | 450 kts | 273° |
| 2026-05-07 10:42 | 56.86189 | 58.36585 | 27058 ft | 454 kts | 273° |
| 2026-05-07 10:42 | 56.86267 | 58.30792 | 27572 ft | 458 kts | 272° |
| 2026-05-07 10:42 | 56.86343 | 58.24943 | 28119 ft | 461 kts | 272° |
| 2026-05-07 10:43 | 56.86417 | 58.19057 | 28619 ft | 465 kts | 272° |
| 2026-05-07 10:43 | 56.86489 | 58.13172 | 29055 ft | 470 kts | 272° |
| 2026-05-07 10:43 | 56.86559 | 58.07142 | 29520 ft | 474 kts | 272° |
| 2026-05-07 10:43 | 56.86626 | 58.01131 | 30162 ft | 473 kts | 272° |
| 2026-05-07 10:44 | 56.86689 | 57.95238 | 30950 ft | 469 kts | 272° |
| 2026-05-07 10:44 | 56.86750 | 57.89291 | 31695 ft | 466 kts | 271° |
| 2026-05-07 10:44 | 56.86807 | 57.83424 | 32324 ft | 464 kts | 271° |
| 2026-05-07 10:44 | 56.86861 | 57.77580 | 32849 ft | 464 kts | 271° |
| 2026-05-07 10:45 | 56.86913 | 57.71684 | 33347 ft | 465 kts | 271° |
| 2026-05-07 10:45 | 56.86962 | 57.65795 | 33886 ft | 464 kts | 271° |
| 2026-05-07 10:45 | 56.87008 | 57.59990 | 34459 ft | 462 kts | 271° |
| 2026-05-07 10:45 | 56.87052 | 57.54089 | 34978 ft | 461 kts | 271° |
| 2026-05-07 10:46 | 56.87093 | 57.48251 | 35373 ft | 460 kts | 271° |
| 2026-05-07 10:46 | 56.87130 | 57.42483 | 35774 ft | 458 kts | 271° |
| 2026-05-07 10:46 | 56.87165 | 57.36697 | 36157 ft | 455 kts | 271° |
| 2026-05-07 10:46 | 56.87198 | 57.30828 | 36460 ft | 453 kts | 270° |
| 2026-05-07 10:47 | 56.87227 | 57.25098 | 36777 ft | 453 kts | 270° |
| 2026-05-07 10:47 | 56.87254 | 57.19294 | 37101 ft | 453 kts | 270° |
| 2026-05-07 10:47 | 56.87278 | 57.13617 | 37458 ft | 452 kts | 270° |
| 2026-05-07 10:47 | 56.87299 | 57.07829 | 37792 ft | 451 kts | 270° |
| 2026-05-07 10:48 | 56.87318 | 57.02160 | 37963 ft | 453 kts | 270° |
| 2026-05-07 10:48 | 56.87334 | 56.96394 | 37976 ft | 453 kts | 270° |
| 2026-05-07 10:48 | 56.87358 | 56.85019 | 37980 ft | 450 kts | 270° |
| 2026-05-07 10:49 | 56.87372 | 56.73559 | 37981 ft | 453 kts | 270° |
| 2026-05-07 10:49 | 56.87375 | 56.62080 | 37988 ft | 451 kts | 270° |
| 2026-05-07 10:50 | 56.87368 | 56.50670 | 37998 ft | 452 kts | 270° |
| 2026-05-07 10:50 | 56.87392 | 56.39231 | 37996 ft | 451 kts | 271° |
| 2026-05-07 10:51 | 56.87518 | 56.27857 | 38003 ft | 451 kts | 270° |
| 2026-05-07 10:51 | 56.87631 | 56.16292 | 38012 ft | 450 kts | 270° |
| 2026-05-07 10:52 | 56.87728 | 56.04875 | 38005 ft | 452 kts | 270° |
| 2026-05-07 10:52 | 56.87813 | 55.93471 | 37997 ft | 450 kts | 270° |
| 2026-05-07 10:53 | 56.87769 | 55.82024 | 37998 ft | 452 kts | 268° |
| 2026-05-07 10:53 | 56.87611 | 55.70600 | 37992 ft | 451 kts | 268° |
| 2026-05-07 10:54 | 56.87450 | 55.59154 | 37989 ft | 452 kts | 268° |
| 2026-05-07 10:54 | 56.87284 | 55.47733 | 37993 ft | 452 kts | 268° |
| 2026-05-07 10:55 | 56.87108 | 55.36235 | 37995 ft | 451 kts | 268° |
| 2026-05-07 10:55 | 56.86925 | 55.24828 | 37990 ft | 452 kts | 267° |
| 2026-05-07 10:56 | 56.86731 | 55.13349 | 37990 ft | 451 kts | 268° |
| 2026-05-07 10:56 | 56.86527 | 55.01928 | 37992 ft | 451 kts | 268° |
| 2026-05-07 10:57 | 56.86313 | 54.90509 | 37996 ft | 451 kts | 268° |
| 2026-05-07 10:57 | 56.86088 | 54.79059 | 37993 ft | 452 kts | 268° |
| 2026-05-07 10:58 | 56.85854 | 54.67645 | 37991 ft | 453 kts | 268° |
| 2026-05-07 10:58 | 56.85624 | 54.56159 | 37996 ft | 451 kts | 268° |
| 2026-05-07 10:59 | 56.85484 | 54.44723 | 37988 ft | 450 kts | 269° |
| 2026-05-07 10:59 | 56.85331 | 54.33277 | 37999 ft | 452 kts | 268° |
| 2026-05-07 11:00 | 56.85165 | 54.21834 | 38000 ft | 450 kts | 268° |
| 2026-05-07 11:00 | 56.84984 | 54.10314 | 38003 ft | 452 kts | 268° |
| 2026-05-07 11:01 | 56.84730 | 53.98965 | 38012 ft | 450 kts | 267° |
| 2026-05-07 11:01 | 56.84453 | 53.87485 | 38007 ft | 452 kts | 267° |
| 2026-05-07 11:02 | 56.84168 | 53.76026 | 38007 ft | 450 kts | 267° |
| 2026-05-07 11:02 | 56.83875 | 53.64633 | 38009 ft | 450 kts | 267° |
| 2026-05-07 11:03 | 56.83572 | 53.53236 | 38014 ft | 449 kts | 267° |
| 2026-05-07 11:03 | 56.83296 | 53.41830 | 38010 ft | 452 kts | 270° |
| 2026-05-07 11:04 | 56.83328 | 53.30348 | 38022 ft | 450 kts | 269° |
| 2026-05-07 11:04 | 56.83349 | 53.18964 | 38016 ft | 449 kts | 269° |
| 2026-05-07 11:05 | 56.83350 | 53.07542 | 38017 ft | 451 kts | 269° |
| 2026-05-07 11:05 | 56.83334 | 52.96174 | 38012 ft | 450 kts | 269° |
| 2026-05-07 11:06 | 56.83285 | 52.84742 | 38012 ft | 448 kts | 269° |
| 2026-05-07 11:06 | 56.83222 | 52.75281 | 38016 ft | 449 kts | 269° |
| 2026-05-07 11:07 | 56.83137 | 52.63882 | 38016 ft | 448 kts | 269° |
| 2026-05-07 11:07 | 56.83122 | 52.61988 | 38016 ft | 448 kts | 269° |